createdAt,value
2022-09-22T00:03:35.497Z,87.78
2022-09-22T00:08:41.616Z,87.62
2022-09-22T00:13:47.163Z,87.60
2022-09-22T00:18:49.467Z,88.22
2022-09-22T00:23:51.742Z,88.56
2022-09-22T00:28:53.495Z,88.78
2022-09-22T00:33:56.260Z,88.83
2022-09-22T00:38:58.445Z,89.04
2022-09-22T00:44:36.486Z,88.86
2022-09-22T00:50:15.457Z,88.83
2022-09-22T00:55:46.564Z,89.03
2022-09-22T01:00:48.699Z,89.46
2022-09-22T01:05:54.495Z,89.60
2022-09-22T01:10:58.904Z,89.54
2022-09-22T01:16:39.770Z,89.57
2022-09-22T01:21:58.709Z,89.51
2022-09-22T01:27:28.336Z,89.72
2022-09-22T01:32:42.536Z,89.58
2022-09-22T01:37:48.585Z,89.35
2022-09-22T01:43:06.320Z,89.18
2022-09-22T01:48:23.566Z,89.21
2022-09-22T01:53:34.265Z,89.22
2022-09-22T01:58:45.256Z,89.11
2022-09-22T02:03:46.815Z,89.39
2022-09-22T02:09:06.527Z,89.54
2022-09-22T02:14:09.307Z,89.57
2022-09-22T02:19:28.757Z,89.50
2022-09-22T02:24:46.401Z,89.52
2022-09-22T02:29:54.456Z,89.42
2022-09-22T02:34:57.142Z,89.18
2022-09-22T02:40:43.322Z,89.29
2022-09-22T02:46:14.804Z,89.22
2022-09-22T02:51:18.221Z,89.04
2022-09-22T02:56:20.200Z,88.24
2022-09-22T03:01:21.889Z,87.85
2022-09-22T03:06:23.569Z,87.67
2022-09-22T03:11:26.677Z,87.74
2022-09-22T03:16:28.311Z,87.65
2022-09-22T03:21:29.933Z,87.59
2022-09-22T03:26:31.618Z,87.39
2022-09-22T03:31:33.185Z,87.15
2022-09-22T03:36:34.914Z,86.94
2022-09-22T03:41:37.128Z,86.90
2022-09-22T03:46:38.842Z,86.99
2022-09-22T03:51:40.460Z,87.11
2022-09-22T03:56:42.086Z,87.17
2022-09-22T04:01:44.246Z,86.78
2022-09-22T04:06:46.078Z,86.71
2022-09-22T04:11:47.977Z,86.73
2022-09-22T04:16:49.632Z,86.96
2022-09-22T04:21:56.845Z,87.09
2022-09-22T04:32:20.548Z,86.99
2022-09-22T04:37:22.157Z,87.09
2022-09-22T04:42:23.790Z,87.31
2022-09-22T04:47:25.692Z,87.50
2022-09-22T04:52:27.407Z,87.73
2022-09-22T04:57:29.142Z,88.53
2022-09-22T05:02:31.024Z,88.91
2022-09-22T05:07:32.798Z,89.13
2022-09-22T05:12:37.851Z,89.01
2022-09-22T05:17:52.038Z,89.27
2022-09-22T05:22:56.980Z,89.61
2022-09-22T05:27:59.553Z,89.81
2022-09-22T05:33:01.228Z,90.19
2022-09-22T05:38:03.434Z,90.13
2022-09-22T05:43:05.413Z,90.00
2022-09-22T05:48:07.020Z,90.00
2022-09-22T05:53:10.576Z,89.93
2022-09-22T05:58:12.769Z,89.88
2022-09-22T06:03:14.845Z,89.82
2022-09-22T06:08:17.360Z,89.83
2022-09-22T06:13:19.164Z,89.71
2022-09-22T06:18:24.565Z,89.70
2022-09-22T06:23:26.777Z,89.61
2022-09-22T06:28:28.639Z,89.38
2022-09-22T06:33:30.530Z,89.32
2022-09-22T06:38:32.328Z,89.07
2022-09-22T06:43:37.338Z,88.96
2022-09-22T06:48:39.111Z,88.51
2022-09-22T06:53:40.807Z,87.58
2022-09-22T06:59:08.308Z,86.57
2022-09-22T07:04:06.153Z,86.14
2022-09-22T07:09:08.749Z,86.07
2022-09-22T07:14:12.101Z,86.04
2022-09-22T07:19:14.807Z,85.29
2022-09-22T07:24:16.459Z,84.97
2022-09-22T07:29:18.157Z,84.94
2022-09-22T07:34:19.892Z,84.39
2022-09-22T07:39:24.524Z,84.10
2022-09-22T07:44:44.851Z,83.87
2022-09-22T07:49:46.714Z,82.25
2022-09-22T07:54:48.467Z,82.23
2022-09-22T07:59:50.141Z,81.87
2022-09-22T08:04:51.845Z,81.70
2022-09-22T08:09:53.587Z,81.64
2022-09-22T08:14:57.621Z,81.76
2022-09-22T08:20:01.846Z,81.28
2022-09-22T08:25:04.259Z,80.46
2022-09-22T08:30:07.093Z,81.07
2022-09-22T08:35:09.321Z,80.92
2022-09-22T08:40:23.016Z,80.97
2022-09-22T08:45:33.885Z,80.65
2022-09-22T08:51:11.079Z,80.21
2022-09-22T08:56:43.887Z,78.04
2022-09-22T09:01:45.996Z,76.30
2022-09-22T09:07:10.576Z,74.06
2022-09-22T09:12:38.486Z,73.93
2022-09-22T09:17:45.385Z,72.57
2022-09-22T09:22:56.848Z,73.79
2022-09-22T09:28:14.947Z,72.64
2022-09-22T09:33:49.177Z,71.69
2022-09-22T09:38:57.644Z,71.33
2022-09-22T09:44:01.698Z,70.71
2022-09-22T09:49:18.954Z,70.64
2022-09-22T09:54:21.437Z,69.25
2022-09-22T09:59:45.800Z,68.43
2022-09-22T10:04:52.851Z,68.81
2022-09-22T10:09:59.629Z,68.06
2022-09-22T10:15:01.715Z,68.29
2022-09-22T10:20:31.185Z,69.36
2022-09-22T10:25:33.521Z,66.61
2022-09-22T10:30:39.219Z,65.04
2022-09-22T10:36:12.087Z,64.84
2022-09-22T10:41:21.027Z,63.75
2022-09-22T10:46:58.021Z,64.99
2022-09-22T10:52:30.194Z,65.58
2022-09-22T10:58:09.285Z,66.12
2022-09-22T11:03:26.122Z,67.77
2022-09-22T11:09:37.436Z,67.57
2022-09-22T11:15:39.369Z,67.04
2022-09-22T11:20:51.861Z,67.44
2022-09-22T11:26:46.475Z,67.07
2022-09-22T11:32:25.067Z,67.65
2022-09-22T11:37:45.498Z,67.83
2022-09-22T11:43:02.184Z,67.11
2022-09-22T11:48:21.329Z,67.46
2022-09-22T11:53:51.887Z,67.85
2022-09-22T11:58:59.145Z,67.86
2022-09-22T12:04:29.334Z,67.38
2022-09-22T12:09:37.406Z,67.10
2022-09-22T12:14:41.329Z,64.22
2022-09-22T12:20:21.506Z,62.41
2022-09-22T12:25:48.598Z,62.98
2022-09-22T12:31:12.470Z,64.35
2022-09-22T12:36:16.607Z,65.13
2022-09-22T12:41:19.253Z,65.14
2022-09-22T12:46:27.459Z,66.14
2022-09-22T12:51:32.673Z,68.85
2022-09-22T12:57:02.266Z,71.68
2022-09-22T13:02:16.246Z,74.50
2022-09-22T13:07:42.204Z,74.71
2022-09-22T13:13:02.897Z,75.13
2022-09-22T13:18:32.682Z,76.07
2022-09-22T13:23:34.434Z,75.88
2022-09-22T13:28:36.119Z,76.18
2022-09-22T13:33:38.498Z,77.19
2022-09-22T13:38:50.812Z,77.31
2022-09-22T13:44:00.408Z,77.23
2022-09-22T13:49:08.821Z,77.26
2022-09-22T13:54:18.119Z,77.57
2022-09-22T13:59:21.302Z,77.82
2022-09-22T14:04:26.986Z,76.55
2022-09-22T14:09:30.960Z,76.57
2022-09-22T14:14:32.728Z,77.32
2022-09-22T14:19:38.914Z,76.88
2022-09-22T14:24:50.408Z,76.37
2022-09-22T14:29:55.182Z,76.50
2022-09-22T14:35:05.052Z,76.75
2022-09-22T14:40:25.388Z,76.62
2022-09-22T14:45:29.118Z,77.28
2022-09-22T14:50:31.050Z,78.00
2022-09-22T14:55:45.722Z,78.22
2022-09-22T15:01:16.736Z,78.44
2022-09-22T15:06:18.846Z,77.93
2022-09-22T15:11:41.432Z,77.97
2022-09-22T15:16:43.678Z,78.04
2022-09-22T15:21:47.327Z,78.69
2022-09-22T15:26:49.105Z,78.72
2022-09-22T15:31:50.909Z,79.00
2022-09-22T15:36:55.521Z,79.12
2022-09-22T15:41:57.390Z,79.00
2022-09-22T15:47:00.907Z,79.12
2022-09-22T15:52:04.430Z,79.36
2022-09-22T15:57:06.349Z,79.33
2022-09-22T16:02:11.391Z,79.16
2022-09-22T16:07:14.593Z,79.44
2022-09-22T16:12:18.629Z,79.51
2022-09-22T16:17:24.184Z,79.55
2022-09-22T16:22:25.940Z,79.52
2022-09-22T16:27:29.453Z,79.81
2022-09-22T16:32:33.792Z,80.07
2022-09-22T16:37:35.562Z,80.40
2022-09-22T16:42:39.288Z,80.64
2022-09-22T16:47:41.162Z,80.83
2022-09-22T16:52:42.949Z,81.06
2022-09-22T16:57:44.915Z,81.18
2022-09-22T17:02:46.690Z,81.43
2022-09-22T17:07:49.589Z,81.66
2022-09-22T17:12:52.012Z,81.92
2022-09-22T17:17:53.857Z,82.19
2022-09-22T17:22:57.019Z,82.21
2022-09-22T17:27:59.058Z,82.18
2022-09-22T17:33:01.965Z,82.14
2022-09-22T17:38:03.721Z,82.11
2022-09-22T17:43:05.901Z,82.16
2022-09-22T17:48:26.554Z,82.24
2022-09-22T17:53:46.828Z,82.43
2022-09-22T17:58:48.635Z,82.61
2022-09-22T18:03:51.399Z,82.88
2022-09-22T18:09:00.456Z,82.83
2022-09-22T18:14:02.222Z,83.04
2022-09-22T18:19:06.250Z,83.04
2022-09-22T18:24:07.927Z,83.25
2022-09-22T18:29:10.262Z,83.25
2022-09-22T18:34:12.101Z,82.92
2022-09-22T18:39:13.969Z,82.68
2022-09-22T18:44:18.806Z,82.61
2022-09-22T18:49:20.511Z,82.51
2022-09-22T18:54:22.140Z,82.64
2022-09-22T18:59:26.751Z,82.61
2022-09-22T19:04:28.524Z,83.05
2022-09-22T19:09:30.642Z,83.07
2022-09-22T19:14:38.367Z,82.68
2022-09-22T19:19:42.213Z,82.32
2022-09-22T19:24:47.894Z,82.13
2022-09-22T19:29:51.367Z,82.21
2022-09-22T19:34:54.363Z,81.80
2022-09-22T19:39:56.444Z,81.71
2022-09-22T19:44:58.852Z,81.54
2022-09-22T19:50:00.607Z,81.43
2022-09-22T19:55:02.994Z,81.77
2022-09-22T20:00:06.715Z,81.41
2022-09-22T20:05:34.472Z,81.43
2022-09-22T20:10:36.585Z,81.51
2022-09-22T20:15:38.627Z,81.59
2022-09-22T20:20:40.647Z,81.67
2022-09-22T20:25:43.156Z,81.78
2022-09-22T20:30:45.057Z,81.46
2022-09-22T20:35:52.656Z,82.07
2022-09-22T20:41:02.223Z,82.42
2022-09-22T20:46:04.161Z,82.77
2022-09-22T20:51:07.569Z,82.75
2022-09-22T20:56:11.630Z,82.22
2022-09-22T21:01:17.216Z,81.96
2022-09-22T21:06:19.385Z,82.11
2022-09-22T21:11:21.270Z,82.50
2022-09-22T21:16:23.207Z,82.18
2022-09-22T21:21:25.091Z,81.96
2022-09-22T21:26:27.206Z,81.94
2022-09-22T21:31:29.315Z,82.32
2022-09-22T21:36:31.131Z,82.46
2022-09-22T21:41:32.898Z,82.82
2022-09-22T21:46:40.691Z,82.76
2022-09-22T21:51:44.343Z,82.58
2022-09-22T21:56:46.515Z,82.58
2022-09-22T22:01:48.530Z,82.47
2022-09-22T22:06:51.273Z,82.82
2022-09-22T22:11:58.411Z,83.33
2022-09-22T22:17:03.371Z,84.08
2022-09-22T22:22:05.205Z,84.89
2022-09-22T22:27:10.345Z,84.79
2022-09-22T22:32:12.933Z,84.93
2022-09-22T22:37:16.323Z,84.82
2022-09-22T22:42:17.997Z,84.56
2022-09-22T22:47:19.662Z,84.39
2022-09-22T22:52:21.888Z,84.68
2022-09-22T22:57:23.903Z,84.92
2022-09-22T23:02:25.998Z,84.73
2022-09-22T23:07:28.013Z,85.04
2022-09-22T23:12:30.583Z,85.20
2022-09-22T23:17:32.435Z,85.11
2022-09-22T23:22:35.023Z,84.74
2022-09-22T23:27:37.727Z,84.89
2022-09-22T23:32:39.597Z,85.56
2022-09-22T23:37:41.288Z,85.85
2022-09-22T23:42:43.966Z,86.00
2022-09-22T23:47:46.050Z,86.15
2022-09-22T23:52:47.752Z,86.21
2022-09-22T23:57:50.011Z,86.25
